Time;durP1;ratioP1;P1;durP2;ratioP2;P2;SDS_P1;SDS_P2;PMS_P1;PMS_P2;Temp;Humidity;BMP_temperature;BMP_pressure;BME280_temperature;BME280_humidity;BME280_pressure;Samples;Min_cycle;Max_cycle;Signal;HPM_P1;HPM_P2
2021/05/05 00:01:56;;;;;;;4.77;3.70;;;13.70;99.90;;;;;;5071960;28;20224;-47
2021/05/05 00:04:22;;;;;;;3.93;3.40;;;13.60;99.90;;;;;;5064338;28;20178;-50
2021/05/05 00:06:48;;;;;;;5.37;3.67;;;13.70;99.90;;;;;;5053789;28;20241;-44
2021/05/05 00:09:15;;;;;;;3.90;3.60;;;13.60;99.90;;;;;;5061151;28;20189;-49
2021/05/05 00:11:41;;;;;;;5.67;3.70;;;13.60;99.90;;;;;;5073597;28;20637;-46
2021/05/05 00:14:09;;;;;;;5.20;3.90;;;13.50;99.90;;;;;;5067494;28;20191;-51
2021/05/05 00:16:34;;;;;;;5.47;3.63;;;13.50;99.90;;;;;;5053279;28;20659;-45
2021/05/05 00:19:00;;;;;;;4.80;3.37;;;13.60;99.90;;;;;;5057979;28;20292;-46
2021/05/05 00:21:26;;;;;;;4.00;3.60;;;13.60;99.90;;;;;;5073511;28;20182;-44
2021/05/05 00:23:51;;;;;;;5.10;3.67;;;13.60;99.90;;;;;;5071053;28;20175;-46
2021/05/05 00:26:17;;;;;;;4.13;3.63;;;13.60;99.90;;;;;;5054459;28;20666;-46
2021/05/05 00:28:42;;;;;;;4.93;3.67;;;13.60;99.90;;;;;;5057958;28;20531;-48
2021/05/05 00:31:08;;;;;;;4.13;3.73;;;13.70;99.90;;;;;;5077587;28;20529;-44
2021/05/05 00:33:33;;;;;;;4.13;3.73;;;13.70;99.90;;;;;;5077250;28;20257;-49
2021/05/05 00:35:59;;;;;;;4.43;4.03;;;13.70;99.90;;;;;;5058158;28;20211;-44
2021/05/05 00:38:25;;;;;;;4.77;4.10;;;13.60;99.90;;;;;;5057400;28;20187;-50
2021/05/05 00:40:50;;;;;;;4.40;4.00;;;13.60;99.90;;;;;;5074187;28;20228;-52
2021/05/05 00:43:16;;;;;;;4.50;3.80;;;13.60;99.90;;;;;;5077203;28;20173;-45
2021/05/05 00:45:41;;;;;;;4.13;3.70;;;13.70;99.90;;;;;;5062184;28;20512;-45
2021/05/05 00:48:07;;;;;;;4.67;3.47;;;13.40;99.90;;;;;;5057251;28;20178;-49
2021/05/05 00:50:33;;;;;;;4.20;3.80;;;13.20;99.90;;;;;;5070063;28;20206;-46
2021/05/05 00:52:58;;;;;;;4.23;3.83;;;13.10;99.90;;;;;;5067840;28;20189;-48
2021/05/05 00:55:24;;;;;;;4.17;3.77;;;13.00;99.90;;;;;;5075403;28;20210;-46
2021/05/05 00:57:50;;;;;;;4.50;4.10;;;12.90;99.90;;;;;;5077309;28;20194;-54
2021/05/05 01:00:19;;;;;;;4.27;3.83;;;12.80;99.90;;;;;;5064437;28;20172;-47
2021/05/05 01:02:45;;;;;;;4.80;3.67;;;12.70;99.90;;;;;;5056584;28;20687;-46
2021/05/05 01:05:12;;;;;;;3.87;3.57;;;12.60;99.90;;;;;;5067531;28;20269;-47
2021/05/05 01:07:38;;;;;;;5.80;4.20;;;12.60;99.90;;;;;;5076858;28;20198;-48
2021/05/05 01:10:08;;;;;;;7.33;4.00;;;12.50;99.90;;;;;;5067199;28;20547;-51
2021/05/05 01:12:33;;;;;;;5.47;3.97;;;12.50;99.90;;;;;;5057025;28;20172;-46
2021/05/05 01:14:59;;;;;;;4.90;4.07;;;12.50;99.90;;;;;;5064469;28;20264;-49
2021/05/05 01:17:25;;;;;;;4.53;3.83;;;12.60;99.90;;;;;;5076650;28;20294;-46
2021/05/05 01:19:51;;;;;;;4.53;3.73;;;12.60;99.90;;;;;;5070421;28;20262;-50
2021/05/05 01:22:16;;;;;;;3.70;3.40;;;12.50;99.90;;;;;;5059511;28;20254;-44
2021/05/05 01:24:42;;;;;;;5.17;4.00;;;12.60;99.90;;;;;;5076512;28;20265;-48
2021/05/05 01:27:09;;;;;;;4.00;3.70;;;12.70;99.90;;;;;;5074430;28;20257;-51
2021/05/05 01:29:36;;;;;;;6.63;4.00;;;12.90;99.90;;;;;;5056159;28;20296;-45
2021/05/05 01:32:02;;;;;;;4.77;3.83;;;12.90;99.90;;;;;;5057154;28;20178;-49
2021/05/05 01:34:28;;;;;;;4.43;4.00;;;12.90;99.90;;;;;;5076410;28;20281;-46
2021/05/05 01:36:53;;;;;;;4.73;3.90;;;12.80;99.90;;;;;;5075990;28;20276;-46
2021/05/05 01:39:19;;;;;;;4.53;3.70;;;12.80;99.90;;;;;;5056140;28;20182;-49
2021/05/05 01:41:46;;;;;;;5.47;3.63;;;12.90;99.90;;;;;;5074870;28;20186;-47
2021/05/05 01:44:13;;;;;;;4.93;3.43;;;12.90;99.90;;;;;;5057336;28;20179;-49
2021/05/05 01:46:58;;;;;;;5.23;3.80;;;13.00;99.90;;;;;;5072216;28;20561;-47
2021/05/05 01:49:25;;;;;;;4.60;4.13;;;13.10;99.90;;;;;;5076272;28;20169;-49
2021/05/05 01:51:53;;;;;;;5.23;3.97;;;13.00;99.90;;;;;;5057931;28;20179;-47
2021/05/05 01:54:20;;;;;;;4.33;3.93;;;13.00;99.90;;;;;;5074955;28;20198;-47
2021/05/05 01:56:46;;;;;;;5.07;3.50;;;13.00;99.90;;;;;;5059391;28;20598;-45
2021/05/05 01:59:11;;;;;;;4.43;4.03;;;13.10;99.90;;;;;;5055715;28;20627;-44
2021/05/05 02:01:37;;;;;;;5.53;4.33;;;12.80;99.90;;;;;;5070062;28;20167;-48
2021/05/05 02:04:03;;;;;;;4.77;4.23;;;12.80;99.90;;;;;;5059068;28;20607;-54
2021/05/05 02:06:31;;;;;;;4.33;3.93;;;12.70;99.90;;;;;;5075420;28;20190;-50
2021/05/05 02:08:59;;;;;;;4.23;3.83;;;12.70;99.90;;;;;;5075586;28;20232;-44
2021/05/05 02:11:25;;;;;;;3.70;3.40;;;12.70;99.90;;;;;;5056184;28;20175;-44
2021/05/05 02:13:52;;;;;;;6.00;3.93;;;12.70;99.90;;;;;;5070199;28;20257;-44
2021/05/05 02:16:17;;;;;;;4.23;3.80;;;12.70;99.90;;;;;;5075180;28;20206;-46
2021/05/05 02:18:43;;;;;;;4.70;3.93;;;12.70;99.90;;;;;;5062278;28;20194;-49
2021/05/05 02:21:09;;;;;;;5.00;3.90;;;12.70;99.90;;;;;;5055169;28;20328;-45
2021/05/05 02:23:35;;;;;;;4.40;4.00;;;12.70;99.90;;;;;;5056690;28;20705;-46
2021/05/05 02:26:01;;;;;;;3.87;3.57;;;12.70;99.90;;;;;;5055127;28;20325;-47
2021/05/05 02:28:27;;;;;;;5.07;4.53;;;12.80;99.90;;;;;;5065943;28;20542;-44
2021/05/05 02:30:54;;;;;;;4.33;3.93;;;12.70;99.90;;;;;;5075400;28;20174;-47
2021/05/05 02:33:20;;;;;;;5.57;4.20;;;12.60;99.90;;;;;;5073563;28;20190;-49
2021/05/05 02:35:45;;;;;;;4.90;3.80;;;12.60;99.90;;;;;;5075125;28;20221;-44
2021/05/05 02:38:11;;;;;;;4.10;3.70;;;12.70;99.90;;;;;;5067684;28;20266;-49
2021/05/05 02:40:37;;;;;;;5.27;3.83;;;12.70;99.90;;;;;;5054939;28;20205;-45
2021/05/05 02:43:03;;;;;;;4.63;4.20;;;12.70;99.90;;;;;;5055688;28;20582;-44
2021/05/05 02:45:29;;;;;;;4.80;4.17;;;12.70;99.90;;;;;;5055141;28;20183;-46
2021/05/05 02:47:55;;;;;;;6.50;4.47;;;12.60;99.90;;;;;;5058244;28;20186;-48
2021/05/05 02:50:21;;;;;;;4.20;3.80;;;12.60;99.90;;;;;;5074671;28;20223;-49
2021/05/05 02:52:46;;;;;;;4.50;4.00;;;12.60;99.90;;;;;;5072657;28;20181;-49
2021/05/05 02:55:12;;;;;;;4.27;3.87;;;12.50;99.90;;;;;;5075194;28;20247;-45
2021/05/05 02:57:38;;;;;;;5.00;4.30;;;12.60;99.90;;;;;;5074594;28;20208;-47
2021/05/05 03:00:11;;;;;;;4.50;4.10;;;12.50;99.90;;;;;;5055142;28;20186;-44
2021/05/05 03:02:37;;;;;;;4.40;4.00;;;12.50;99.90;;;;;;5054772;28;20301;-49
2021/05/05 03:05:04;;;;;;;5.87;4.50;;;12.50;99.90;;;;;;5073709;28;20216;-46
2021/05/05 03:07:29;;;;;;;4.37;3.97;;;12.60;99.90;;;;;;5075165;28;20206;-46
2021/05/05 03:09:55;;;;;;;4.93;4.30;;;12.50;99.90;;;;;;5056978;28;20194;-47
2021/05/05 03:12:21;;;;;;;4.40;4.00;;;12.40;99.90;;;;;;5054318;28;20179;-47
2021/05/05 03:14:46;;;;;;;4.20;3.77;;;12.50;99.90;;;;;;5070803;28;20202;-49
2021/05/05 03:17:12;;;;;;;3.93;3.53;;;12.50;99.90;;;;;;5074568;28;20240;-46
2021/05/05 03:19:37;;;;;;;6.13;4.50;;;12.50;99.90;;;;;;5059661;28;20194;-47
2021/05/05 03:22:03;;;;;;;5.90;4.57;;;12.50;99.90;;;;;;5053873;28;20183;-51
2021/05/05 03:24:28;;;;;;;6.37;4.80;;;12.50;99.90;;;;;;5067891;28;20178;-51
2021/05/05 03:26:54;;;;;;;6.67;4.90;;;12.50;99.90;;;;;;5074872;28;20205;-46
2021/05/05 03:29:20;;;;;;;4.80;4.30;;;12.40;99.90;;;;;;5061827;28;20564;-46
2021/05/05 03:31:45;;;;;;;5.57;4.30;;;12.30;99.90;;;;;;5054851;28;20218;-47
2021/05/05 03:34:11;;;;;;;7.87;4.40;;;12.30;99.90;;;;;;5054438;28;20186;-45
2021/05/05 03:36:37;;;;;;;6.70;4.57;;;12.30;99.90;;;;;;5059647;28;20552;-46
2021/05/05 03:39:05;;;;;;;6.03;4.70;;;12.30;99.90;;;;;;5073818;28;20190;-48
2021/05/05 03:41:30;;;;;;;5.20;4.60;;;12.30;99.90;;;;;;5067286;28;20185;-55
2021/05/05 03:43:57;;;;;;;4.70;4.30;;;12.20;99.90;;;;;;5054415;28;20171;-46
2021/05/05 03:46:23;;;;;;;6.73;4.70;;;12.10;99.90;;;;;;5053898;28;20198;-49
2021/05/05 03:48:49;;;;;;;4.70;4.23;;;11.90;99.90;;;;;;5053871;28;20698;-43
2021/05/05 03:51:15;;;;;;;4.97;4.10;;;11.80;99.90;;;;;;5066331;28;20257;-44
2021/05/05 03:53:40;;;;;;;4.87;4.37;;;11.80;99.90;;;;;;5053961;28;20285;-43
2021/05/05 03:56:06;;;;;;;6.37;4.63;;;11.70;99.90;;;;;;5068856;28;20307;-47
2021/05/05 03:58:32;;;;;;;6.20;4.00;;;11.60;99.90;;;;;;5074190;28;20553;-46
2021/05/05 04:00:58;;;;;;;4.60;4.20;;;11.40;99.90;;;;;;5065255;28;20181;-46
2021/05/05 04:03:24;;;;;;;4.70;4.20;;;11.40;99.90;;;;;;5063130;28;20183;-44
2021/05/05 04:05:50;;;;;;;5.93;4.27;;;11.30;99.90;;;;;;5080641;28;20198;-47
2021/05/05 04:08:15;;;;;;;5.00;4.50;;;11.30;99.90;;;;;;5078854;28;20185;-44
2021/05/05 04:10:41;;;;;;;5.63;4.13;;;11.30;99.90;;;;;;5080459;28;20182;-45
2021/05/05 04:13:06;;;;;;;5.37;4.70;;;11.30;99.90;;;;;;5075299;28;20215;-51
2021/05/05 04:15:32;;;;;;;6.27;4.30;;;11.30;99.90;;;;;;5060360;28;20654;-48
2021/05/05 04:17:57;;;;;;;4.50;4.10;;;11.40;99.90;;;;;;5061069;28;20534;-48
2021/05/05 04:20:23;;;;;;;6.37;4.47;;;11.50;99.90;;;;;;5057983;28;20528;-48
2021/05/05 04:22:49;;;;;;;4.63;4.13;;;11.60;99.90;;;;;;5059572;28;20716;-44
2021/05/05 04:25:15;;;;;;;4.93;4.40;;;11.60;99.90;;;;;;5040836;28;20175;-45
2021/05/05 04:27:42;;;;;;;5.10;4.67;;;11.80;99.90;;;;;;5059643;28;20201;-45
2021/05/05 04:30:10;;;;;;;6.30;4.17;;;11.70;99.90;;;;;;5060134;28;20175;-48
2021/05/05 04:32:36;;;;;;;5.17;4.67;;;11.70;99.90;;;;;;5059911;28;20258;-47
2021/05/05 04:35:01;;;;;;;5.73;5.13;;;11.70;99.90;;;;;;5060562;28;20332;-48
2021/05/05 04:37:27;;;;;;;5.57;4.97;;;11.60;99.90;;;;;;5060254;28;20240;-46
2021/05/05 04:39:52;;;;;;;5.83;5.23;;;11.50;99.90;;;;;;5060371;28;20167;-47
2021/05/05 04:42:18;;;;;;;5.70;5.10;;;11.40;99.90;;;;;;5059769;28;20182;-48
2021/05/05 04:44:43;;;;;;;5.73;5.13;;;11.40;99.90;;;;;;5060450;28;20631;-46
2021/05/05 04:47:09;;;;;;;7.27;5.33;;;11.40;99.90;;;;;;5060002;28;20794;-46
2021/05/05 04:49:35;;;;;;;6.43;5.20;;;11.50;99.90;;;;;;5059024;28;20270;-48
2021/05/05 04:52:00;;;;;;;5.20;4.80;;;11.60;99.90;;;;;;5059623;28;20186;-48
2021/05/05 04:54:26;;;;;;;5.53;4.77;;;11.60;99.90;;;;;;5059933;28;20198;-46
2021/05/05 04:56:52;;;;;;;5.80;5.30;;;11.60;99.90;;;;;;5058723;28;20188;-47
2021/05/05 04:59:17;;;;;;;5.40;4.90;;;11.60;99.90;;;;;;5060267;28;20178;-47
2021/05/05 05:01:43;;;;;;;6.10;5.33;;;11.60;99.90;;;;;;5059594;28;20171;-46
2021/05/05 05:04:09;;;;;;;7.00;6.30;;;11.60;99.90;;;;;;5059963;28;20179;-47
2021/05/05 05:06:34;;;;;;;6.80;6.20;;;11.70;99.90;;;;;;5059460;28;20198;-48
2021/05/05 05:09:00;;;;;;;7.03;6.33;;;11.70;99.90;;;;;;5063598;28;20733;-45
2021/05/05 05:11:25;;;;;;;7.50;6.53;;;11.80;99.90;;;;;;5066134;28;20285;-45
2021/05/05 05:13:51;;;;;;;7.17;6.10;;;11.80;99.90;;;;;;5053570;28;20203;-47
2021/05/05 05:16:17;;;;;;;7.13;6.43;;;11.90;99.90;;;;;;5073211;28;20218;-46
2021/05/05 05:18:42;;;;;;;7.63;6.83;;;11.90;99.90;;;;;;5075836;28;20182;-50
2021/05/05 05:21:08;;;;;;;6.67;6.03;;;11.90;99.90;;;;;;5073836;28;20210;-44
2021/05/05 05:23:34;;;;;;;6.77;6.17;;;11.90;99.90;;;;;;5076748;28;20170;-52
2021/05/05 05:26:00;;;;;;;7.60;6.77;;;11.80;99.90;;;;;;5065993;28;20324;-46
2021/05/05 05:28:27;;;;;;;8.20;7.40;;;11.80;99.90;;;;;;5076843;28;20183;-45
2021/05/05 05:30:52;;;;;;;8.40;7.17;;;11.80;99.90;;;;;;5076390;28;20236;-48
2021/05/05 05:33:18;;;;;;;7.20;6.17;;;11.80;99.90;;;;;;5075396;28;20174;-46
2021/05/05 05:35:44;;;;;;;7.00;6.30;;;11.80;99.90;;;;;;5066276;28;20457;-44
2021/05/05 05:38:10;;;;;;;6.83;6.23;;;11.90;99.90;;;;;;5055121;28;20650;-44
2021/05/05 05:40:36;;;;;;;6.63;5.70;;;11.80;99.90;;;;;;5054222;28;20171;-52
2021/05/05 05:43:02;;;;;;;6.90;6.10;;;11.70;99.90;;;;;;5061800;28;20187;-49
2021/05/05 05:45:28;;;;;;;6.97;6.27;;;11.60;99.90;;;;;;5054905;28;20665;-47
2021/05/05 05:47:54;;;;;;;6.10;5.60;;;11.30;99.90;;;;;;5061578;28;20190;-46
2021/05/05 05:50:20;;;;;;;6.17;5.57;;;11.10;99.90;;;;;;5072289;28;20170;-49
2021/05/05 05:52:46;;;;;;;5.93;4.80;;;11.00;99.90;;;;;;5061632;28;20190;-42
2021/05/05 05:55:14;;;;;;;4.13;3.77;;;10.70;99.90;;;;;;5060566;28;20202;-53
2021/05/05 05:57:41;;;;;;;4.47;4.07;;;10.40;99.90;;;;;;5071484;28;20207;-43
2021/05/05 06:00:09;;;;;;;4.50;4.10;;;10.40;99.90;;;;;;5085849;28;20308;-44
2021/05/05 06:02:35;;;;;;;3.67;3.37;;;10.40;99.90;;;;;;5068900;28;20646;-42
2021/05/05 06:05:00;;;;;;;1.80;1.70;;;10.50;99.90;;;;;;5074233;28;20180;-46
2021/05/05 06:07:26;;;;;;;2.17;1.83;;;10.60;99.90;;;;;;5072316;28;20221;-49
2021/05/05 06:09:51;;;;;;;1.03;0.97;;;10.60;99.90;;;;;;5049352;28;20197;-50
2021/05/05 06:12:17;;;;;;;1.00;1.00;;;10.50;99.90;;;;;;5068671;28;20190;-41
2021/05/05 06:14:42;;;;;;;1.20;1.10;;;10.40;99.90;;;;;;5065283;28;20503;-43
2021/05/05 06:17:08;;;;;;;1.20;0.77;;;10.30;99.90;;;;;;5075103;28;20289;-47
2021/05/05 06:19:33;;;;;;;0.90;0.73;;;10.30;99.90;;;;;;5058428;28;20194;-46
2021/05/05 06:21:59;;;;;;;0.87;0.70;;;10.20;99.90;;;;;;5063518;28;20259;-44
2021/05/05 06:24:24;;;;;;;2.23;0.80;;;10.10;99.90;;;;;;5067030;28;20266;-48
2021/05/05 06:26:50;;;;;;;1.63;0.80;;;10.20;99.90;;;;;;5037090;28;20264;-41
2021/05/05 06:29:18;;;;;;;0.77;0.70;;;10.20;99.90;;;;;;5064920;28;20638;-41
2021/05/05 06:31:43;;;;;;;0.80;0.80;;;10.10;99.90;;;;;;5055781;28;20582;-41
2021/05/05 06:34:09;;;;;;;1.40;0.90;;;10.00;99.90;;;;;;5061542;28;20193;-44
2021/05/05 06:36:34;;;;;;;1.00;0.80;;;9.90;99.90;;;;;;5068042;28;20190;-45
2021/05/05 06:39:01;;;;;;;1.13;0.77;;;9.80;99.90;;;;;;5071628;28;20229;-46
2021/05/05 06:41:27;;;;;;;2.63;0.90;;;9.80;99.90;;;;;;5061246;28;20280;-48
2021/05/05 06:43:52;;;;;;;1.33;0.90;;;9.80;99.90;;;;;;5060821;28;20696;-44
2021/05/05 06:46:18;;;;;;;3.10;1.20;;;9.60;99.90;;;;;;5054872;28;20203;-43
2021/05/05 06:48:43;;;;;;;1.30;0.80;;;9.60;99.90;;;;;;5068886;28;20530;-41
2021/05/05 06:51:09;;;;;;;1.43;0.93;;;9.50;99.90;;;;;;5072768;28;20541;-39
2021/05/05 06:53:35;;;;;;;1.40;0.70;;;9.40;99.90;;;;;;5071325;28;20196;-45
2021/05/05 06:56:00;;;;;;;1.93;0.90;;;9.40;99.90;;;;;;5072956;28;20224;-46
2021/05/05 06:58:26;;;;;;;1.20;0.80;;;9.40;99.90;;;;;;5056918;28;20236;-46
2021/05/05 07:00:51;;;;;;;1.43;0.70;;;9.40;99.90;;;;;;5075347;28;20519;-46
2021/05/05 07:03:17;;;;;;;2.70;1.03;;;9.30;99.90;;;;;;5075051;28;20202;-48
2021/05/05 07:05:43;;;;;;;1.53;0.90;;;9.20;99.90;;;;;;5074378;28;20175;-40
2021/05/05 07:08:08;;;;;;;0.73;0.50;;;9.10;99.90;;;;;;5074890;28;20179;-42
2021/05/05 07:10:34;;;;;;;1.00;0.90;;;9.10;99.90;;;;;;5056714;28;20649;-46
2021/05/05 07:12:59;;;;;;;1.17;0.70;;;9.00;99.90;;;;;;5073214;28;20201;-47
2021/05/05 07:15:25;;;;;;;0.83;0.83;;;9.00;99.90;;;;;;5074663;28;20194;-48
2021/05/05 07:17:52;;;;;;;0.57;0.57;;;9.00;99.90;;;;;;5072835;28;20596;-44
2021/05/05 07:20:17;;;;;;;2.03;1.10;;;9.00;99.90;;;;;;5074359;28;20683;-40
2021/05/05 07:22:43;;;;;;;1.83;1.03;;;8.90;99.90;;;;;;5074275;28;20178;-42
2021/05/05 07:25:09;;;;;;;1.10;0.90;;;8.90;99.90;;;;;;5072896;28;20205;-45
2021/05/05 07:27:34;;;;;;;0.90;0.80;;;8.90;99.90;;;;;;5074066;28;20213;-43
2021/05/05 07:30:00;;;;;;;1.13;0.80;;;8.80;99.90;;;;;;5074111;28;20174;-41
2021/05/05 07:32:26;;;;;;;0.80;0.80;;;8.80;99.90;;;;;;5072967;28;20204;-51
2021/05/05 07:34:53;;;;;;;1.70;1.00;;;8.70;99.90;;;;;;5074375;28;20291;-45
2021/05/05 07:37:36;;;;;;;1.20;1.00;;;8.70;99.90;;;;;;5073459;28;20213;-42
2021/05/05 07:40:28;;;;;;;1.40;0.80;;;8.80;99.90;;;;;;5075319;28;20166;-44
2021/05/05 07:45:30;;;;;;;1.60;1.00;;;8.90;99.90;;;;;;5074967;28;20167;-47
2021/05/05 07:50:31;;;;;;;2.33;1.13;;;8.90;99.90;;;;;;5074338;28;20685;-48
2021/05/05 07:52:58;;;;;;;1.73;1.10;;;8.70;99.90;;;;;;5073833;28;20174;-45
2021/05/05 07:55:23;;;;;;;1.27;0.97;;;8.70;99.90;;;;;;5074438;28;20251;-47
2021/05/05 07:57:49;;;;;;;1.87;1.50;;;8.70;99.90;;;;;;5074651;28;20190;-39
2021/05/05 08:00:15;;;;;;;104.70;50.83;;;8.70;99.90;;;;;;5073911;28;20163;-45
2021/05/05 08:02:41;;;;;;;6.83;5.23;;;8.90;99.90;;;;;;5073524;28;20618;-44
2021/05/05 08:05:07;;;;;;;2.93;1.10;;;8.90;99.90;;;;;;5074793;28;20205;-45
2021/05/05 08:07:32;;;;;;;1.47;1.10;;;8.90;99.90;;;;;;5074129;28;20190;-44
2021/05/05 08:09:58;;;;;;;17.77;14.60;;;8.80;99.90;;;;;;5074277;28;20224;-48
2021/05/05 08:12:23;;;;;;;1.93;1.60;;;8.70;99.90;;;;;;5073394;28;20575;-43
2021/05/05 08:14:51;;;;;;;12.60;8.97;;;8.80;99.90;;;;;;5074350;28;20608;-48
2021/05/05 08:17:17;;;;;;;1.33;1.23;;;8.80;99.90;;;;;;5072993;28;20206;-42
2021/05/05 08:19:44;;;;;;;2.03;1.23;;;8.80;99.90;;;;;;5073302;28;20173;-43
2021/05/05 08:22:09;;;;;;;1.30;1.20;;;8.70;99.90;;;;;;5074799;28;20630;-44
2021/05/05 08:24:36;;;;;;;1.30;1.17;;;8.40;99.90;;;;;;5072496;28;20253;-42
2021/05/05 08:27:02;;;;;;;37.20;23.20;;;8.30;99.90;;;;;;5073551;28;20289;-44
2021/05/05 08:29:28;;;;;;;3.70;2.83;;;8.40;99.90;;;;;;5073273;28;20206;-42
2021/05/05 08:31:55;;;;;;;1.40;1.23;;;8.50;99.90;;;;;;5072087;28;20187;-39
2021/05/05 08:34:21;;;;;;;0.83;0.80;;;8.60;99.90;;;;;;5073773;28;20249;-39
2021/05/05 08:36:47;;;;;;;22.23;15.83;;;8.60;99.90;;;;;;5073459;28;20194;-39
2021/05/05 08:39:12;;;;;;;2.10;0.90;;;8.70;99.90;;;;;;5069962;28;20198;-46
2021/05/05 08:41:41;;;;;;;1.50;0.90;;;10.30;99.90;;;;;;5072768;28;20717;-43
2021/05/05 08:44:10;;;;;;;3.33;1.27;;;8.70;99.90;;;;;;5073290;28;20163;-44
2021/05/05 08:46:41;;;;;;;1.13;0.90;;;8.70;99.90;;;;;;5073466;28;20198;-47
2021/05/05 08:49:08;;;;;;;0.60;0.60;;;8.80;99.90;;;;;;5075536;28;20697;-40
2021/05/05 08:51:37;;;;;;;1.40;0.80;;;8.90;99.90;;;;;;5077063;28;20174;-41
2021/05/05 08:54:07;;;;;;;1.93;1.30;;;9.00;99.90;;;;;;5058933;28;20576;-42
2021/05/05 08:56:36;;;;;;;1.23;0.87;;;9.00;99.90;;;;;;5075515;28;20218;-45
2021/05/05 08:59:07;;;;;;;1.53;1.10;;;8.90;99.90;;;;;;5077042;28;20174;-40
2021/05/05 09:01:33;;;;;;;1.07;0.97;;;8.90;99.90;;;;;;5076725;28;20496;-44
2021/05/05 09:03:59;;;;;;;1.10;1.00;;;8.80;99.90;;;;;;5076144;28;20210;-43
2021/05/05 09:06:46;;;;;;;1.40;1.07;;;8.90;99.90;;;;;;5077117;28;20276;-47
2021/05/05 09:09:38;;;;;;;1.17;1.00;;;8.90;99.90;;;;;;5076801;28;20171;-50
2021/05/05 09:12:22;;;;;;;2.37;1.07;;;9.00;99.90;;;;;;5077360;28;20147;-45
2021/05/05 09:14:49;;;;;;;0.80;0.80;;;9.10;99.90;;;;;;5077456;28;20665;-48
2021/05/05 09:17:19;;;;;;;0.83;0.83;;;9.10;99.90;;;;;;5077249;28;20187;-42
2021/05/05 09:19:44;;;;;;;1.53;0.90;;;9.10;99.90;;;;;;5076789;28;20253;-47
2021/05/05 09:22:10;;;;;;;0.70;0.63;;;9.20;99.90;;;;;;5076484;28;20262;-43
2021/05/05 09:24:38;;;;;;;1.90;0.90;;;9.30;99.90;;;;;;5073785;28;20582;-41
2021/05/05 09:27:06;;;;;;;1.13;0.80;;;9.30;99.90;;;;;;5065003;28;20187;-44
2021/05/05 09:29:45;;;;;;;1.60;0.70;;;9.70;99.90;;;;;;5065696;28;20605;-39
2021/05/05 09:32:12;;;;;;;1.47;0.67;;;9.80;99.90;;;;;;5080835;28;20170;-51
2021/05/05 09:34:38;;;;;;;0.90;0.90;;;9.60;99.90;;;;;;5085373;28;20210;-42
2021/05/05 09:37:07;;;;;;;0.77;0.77;;;9.40;99.90;;;;;;5089450;28;20592;-47
2021/05/05 09:39:34;;;;;;;0.80;0.80;;;9.30;99.90;;;;;;5091749;28;20641;-47
2021/05/05 09:42:00;;;;;;;0.80;0.80;;;9.40;99.90;;;;;;5075318;28;20886;-40
2021/05/05 09:44:27;;;;;;;0.70;0.70;;;9.50;99.90;;;;;;5084519;28;20181;-45
2021/05/05 09:46:57;;;;;;;0.90;0.90;;;9.50;99.90;;;;;;5073887;28;20195;-45
2021/05/05 09:49:26;;;;;;;0.87;0.87;;;9.40;99.90;;;;;;5074321;28;20269;-42
2021/05/05 09:51:56;;;;;;;1.17;0.83;;;9.20;99.90;;;;;;5087219;28;20181;-45
2021/05/05 09:54:33;;;;;;;0.80;0.80;;;9.10;99.90;;;;;;5076504;28;20181;-42
2021/05/05 09:57:11;;;;;;;2.33;0.87;;;9.00;99.90;;;;;;5064529;28;20603;-43
2021/05/05 10:00:07;;;;;;;2.00;1.10;;;9.10;99.90;;;;;;5068139;28;20183;-48
2021/05/05 10:02:59;;;;;;;1.20;1.10;;;9.10;99.90;;;;;;5088812;28;20303;-46
2021/05/05 10:05:31;;;;;;;1.43;1.10;;;9.20;99.90;;;;;;5078051;28;20206;-46
2021/05/05 10:08:06;;;;;;;1.63;0.90;;;9.30;99.90;;;;;;5075052;28;20190;-47
2021/05/05 10:10:34;;;;;;;1.00;0.93;;;9.30;99.90;;;;;;5075388;28;20174;-44
2021/05/05 10:13:03;;;;;;;1.23;1.13;;;9.10;99.90;;;;;;5057459;28;20198;-46
2021/05/05 10:15:31;;;;;;;1.27;1.10;;;8.80;99.90;;;;;;5075727;28;20210;-43
2021/05/05 10:17:57;;;;;;;1.30;1.17;;;8.60;99.90;;;;;;5074671;28;20181;-43
2021/05/05 10:20:25;;;;;;;1.73;1.37;;;8.50;99.90;;;;;;5076598;28;20175;-48
2021/05/05 10:22:54;;;;;;;1.43;1.20;;;8.30;99.90;;;;;;5057068;28;20228;-47
2021/05/05 10:25:20;;;;;;;1.23;1.10;;;8.50;99.90;;;;;;5075702;28;20583;-50
2021/05/05 10:27:47;;;;;;;1.20;1.10;;;8.40;99.90;;;;;;5075225;28;20609;-47
2021/05/05 10:30:16;;;;;;;1.17;1.00;;;8.30;99.90;;;;;;5076040;28;20542;-47
2021/05/05 10:32:43;;;;;;;1.20;1.10;;;8.20;99.90;;;;;;5075266;28;20174;-39
2021/05/05 10:35:14;;;;;;;1.97;1.30;;;8.20;99.90;;;;;;5075673;28;20206;-50
2021/05/05 10:37:42;;;;;;;5.67;1.30;;;8.20;99.90;;;;;;5075586;28;20225;-52
2021/05/05 10:40:20;;;;;;;1.93;1.27;;;8.30;99.90;;;;;;5075491;28;20171;-43
2021/05/05 10:42:56;;;;;;;1.07;1.00;;;8.60;99.90;;;;;;5062759;28;20159;-42
2021/05/05 10:45:43;;;;;;;2.07;1.40;;;8.70;99.90;;;;;;5068586;28;20273;-48
2021/05/05 10:48:12;;;;;;;2.47;1.30;;;8.70;99.90;;;;;;5074938;28;20257;-47
2021/05/05 10:50:47;;;;;;;2.40;1.43;;;8.80;99.90;;;;;;5075793;28;20234;-53
2021/05/05 10:53:13;;;;;;;1.30;1.20;;;8.80;99.90;;;;;;5075479;28;20194;-44
2021/05/05 10:55:42;;;;;;;2.00;1.33;;;8.80;99.90;;;;;;5074233;28;20248;-46
2021/05/05 10:58:14;;;;;;;1.77;1.40;;;8.70;99.90;;;;;;5075059;28;20267;-41
2021/05/05 11:00:53;;;;;;;1.40;1.30;;;8.70;99.90;;;;;;5075335;28;20166;-40
2021/05/05 11:03:49;;;;;;;2.90;1.50;;;8.90;99.90;;;;;;5075562;28;20173;-44
2021/05/05 11:06:30;;;;;;;1.40;1.30;;;9.00;99.90;;;;;;5075084;28;20194;-49
2021/05/05 11:09:17;;;;;;;2.43;1.50;;;8.90;99.90;;;;;;5068183;28;20269;-44
2021/05/05 11:11:47;;;;;;;2.87;1.70;;;8.90;99.90;;;;;;5061810;28;20236;-39
2021/05/05 11:14:24;;;;;;;1.97;1.20;;;8.80;99.90;;;;;;5064643;28;20174;-49
2021/05/05 11:19:47;;;;;;;1.70;1.60;;;8.80;99.90;;;;;;5010771;28;20189;-40
2021/05/05 11:22:19;;;;;;;1.83;1.50;;;8.90;99.90;;;;;;5012301;28;20254;-42
2021/05/05 11:24:46;;;;;;;1.53;1.43;;;8.90;99.90;;;;;;5012583;28;20184;-47
2021/05/05 11:27:13;;;;;;;2.37;1.77;;;9.00;99.90;;;;;;5012835;28;20769;-44
2021/05/05 11:29:42;;;;;;;3.10;1.97;;;9.00;99.90;;;;;;5012393;28;20226;-39
2021/05/05 11:32:22;;;;;;;2.80;1.80;;;8.90;99.90;;;;;;5012407;28;20188;-48
2021/05/05 11:34:48;;;;;;;1.90;1.53;;;9.00;99.90;;;;;;5012293;28;20203;-46
2021/05/05 11:37:25;;;;;;;2.63;1.60;;;8.90;99.90;;;;;;5013080;28;20565;-50
2021/05/05 11:39:56;;;;;;;2.33;1.70;;;8.90;99.90;;;;;;5013190;28;20157;-47
2021/05/05 11:42:33;;;;;;;2.00;1.80;;;8.90;99.90;;;;;;5012450;28;20171;-39
2021/05/05 11:45:00;;;;;;;2.77;1.83;;;8.80;99.90;;;;;;5012698;28;20214;-47
2021/05/05 11:47:33;;;;;;;1.97;1.57;;;8.80;99.90;;;;;;5012291;28;20196;-43
2021/05/05 11:50:16;;;;;;;2.37;1.83;;;8.80;99.90;;;;;;5012738;28;20187;-42
2021/05/05 11:52:43;;;;;;;2.47;1.90;;;8.80;99.90;;;;;;5007719;28;20199;-43
2021/05/05 11:55:09;;;;;;;2.43;1.60;;;8.70;99.90;;;;;;5017939;28;20244;-39
2021/05/05 11:58:06;;;;;;;5.10;2.20;;;8.80;99.90;;;;;;5093202;28;20225;-51
2021/05/05 12:00:36;;;;;;;1.60;1.50;;;9.00;99.90;;;;;;4992924;28;20297;-46
2021/05/05 12:03:10;;;;;;;3.07;1.80;;;9.00;99.90;;;;;;4992438;28;20192;-40
2021/05/05 12:05:37;;;;;;;2.40;1.90;;;9.00;99.90;;;;;;4993017;28;20181;-47
2021/05/05 12:08:09;;;;;;;4.43;2.07;;;9.10;99.90;;;;;;4992325;28;20176;-50
2021/05/05 12:10:47;;;;;;;2.60;2.10;;;9.20;99.90;;;;;;4976103;28;20181;-40
2021/05/05 12:13:14;;;;;;;1.83;1.63;;;9.20;99.90;;;;;;4992691;28;20293;-42
2021/05/05 12:15:54;;;;;;;2.57;2.03;;;9.40;99.90;;;;;;4991699;28;20204;-40
2021/05/05 12:18:32;;;;;;;1.93;1.80;;;9.50;99.90;;;;;;4992630;28;20162;-46
2021/05/05 12:21:02;;;;;;;2.87;2.00;;;9.50;99.90;;;;;;4991977;28;20216;-48
2021/05/05 12:23:45;;;;;;;2.50;1.80;;;9.50;99.90;;;;;;4996184;28;20193;-51
2021/05/05 12:26:27;;;;;;;2.47;2.20;;;9.40;99.90;;;;;;4979631;28;20193;-40
2021/05/05 12:28:55;;;;;;;3.33;2.20;;;9.30;99.90;;;;;;4995628;28;20177;-45
2021/05/05 12:31:23;;;;;;;4.00;2.40;;;9.30;99.90;;;;;;4982975;28;20185;-41
2021/05/05 12:33:49;;;;;;;2.87;2.30;;;9.30;99.90;;;;;;4976824;28;20205;-46
2021/05/05 12:36:18;;;;;;;3.73;2.40;;;9.40;99.90;;;;;;5032553;28;20293;-41
2021/05/05 12:38:50;;;;;;;3.57;2.10;;;9.40;99.90;;;;;;5077429;28;20201;-47
2021/05/05 12:41:24;;;;;;;2.60;2.37;;;9.40;99.90;;;;;;5077231;28;20690;-41
2021/05/05 12:43:52;;;;;;;3.63;2.70;;;9.40;99.90;;;;;;5077804;28;20147;-44
2021/05/05 12:46:27;;;;;;;3.30;2.30;;;9.40;99.90;;;;;;5076851;28;20220;-47
2021/05/05 12:48:54;;;;;;;4.23;2.50;;;9.40;99.90;;;;;;5077650;28;20169;-45
2021/05/05 12:51:22;;;;;;;3.20;2.50;;;9.30;99.90;;;;;;5076888;28;20183;-45
2021/05/05 12:53:49;;;;;;;2.73;2.30;;;9.30;99.90;;;;;;5077162;28;20174;-52
2021/05/05 12:56:16;;;;;;;2.97;2.43;;;9.20;99.90;;;;;;5076903;28;20214;-47
2021/05/05 12:58:44;;;;;;;6.90;5.20;;;9.20;99.90;;;;;;5076750;28;20257;-46
2021/05/05 13:01:12;;;;;;;2.50;1.80;;;9.20;99.90;;;;;;5076968;28;20638;-41
2021/05/05 13:03:43;;;;;;;3.83;2.13;;;9.30;99.90;;;;;;5076449;28;20167;-45